Terminal Aerodrome Forecast
Issued by NWS Tuscon, AZ

Home | Current Version | Previous Version | Text Only | Print | Product List | Glossary On
Versions: 1 2 3 4 5 6 7 8 9 10 11 12
000
FTUS45 KTWC 282300
TAFTUS
TAF
KTUS 282325Z 2900/2924 32005KT P6SM SKC
     FM290300 VRB03KT P6SM SKC
     FM290800 14008KT P6SM SCT250
     FM292100 29012G18KT P6SM BKN250=

USA.gov is the U.S. government's official web portal to all federal, state and local government web resources and services.